createdAt,value
2018-10-19T00:01:09.964Z,94.80
2018-10-19T00:03:39.649Z,94.86
2018-10-19T00:06:10.623Z,95.21
2018-10-19T00:08:40.475Z,94.31
2018-10-19T00:11:10.389Z,94.88
2018-10-19T00:13:40.219Z,94.73
2018-10-19T00:16:10.354Z,94.66
2018-10-19T00:18:40.223Z,94.82
2018-10-19T00:21:10.056Z,94.87
2018-10-19T00:23:39.840Z,95.25
2018-10-19T00:26:09.756Z,95.03
2018-10-19T00:28:41.717Z,94.89
2018-10-19T00:31:11.615Z,95.19
2018-10-19T00:33:41.368Z,95.21
2018-10-19T00:36:11.251Z,95.60
2018-10-19T00:38:41.006Z,95.83
2018-10-19T00:41:10.824Z,95.79
2018-10-19T00:43:40.538Z,95.38
2018-10-19T00:46:10.322Z,96.05
2018-10-19T00:48:41.179Z,95.90
2018-10-19T00:51:11.173Z,96.24
2018-10-19T00:53:40.955Z,94.97
2018-10-19T00:56:10.753Z,94.56
2018-10-19T00:58:40.492Z,94.46
2018-10-19T01:01:10.210Z,94.52
2018-10-19T01:03:39.905Z,94.42
2018-10-19T01:06:09.715Z,94.31
2018-10-19T01:08:39.501Z,94.28
2018-10-19T01:11:10.140Z,94.35
2018-10-19T01:13:39.886Z,95.08
2018-10-19T01:16:09.630Z,95.03
2018-10-19T01:18:39.576Z,94.86
2018-10-19T01:21:09.607Z,95.01
2018-10-19T01:23:39.334Z,94.97
2018-10-19T01:26:09.091Z,95.17
2018-10-19T01:28:39.860Z,95.42
2018-10-19T01:31:09.631Z,95.84
2018-10-19T01:33:39.780Z,96.58
2018-10-19T01:36:09.508Z,96.84
2018-10-19T01:38:39.296Z,96.79
2018-10-19T01:41:09.244Z,96.60
2018-10-19T01:43:38.939Z,95.77
2018-10-19T01:46:08.650Z,95.61
2018-10-19T01:48:38.609Z,95.06
2018-10-19T01:51:08.591Z,96.40
2018-10-19T01:53:38.448Z,95.92
2018-10-19T01:56:08.249Z,95.21
2018-10-19T01:58:39.339Z,94.83
2018-10-19T02:01:09.323Z,94.47
2018-10-19T02:03:39.378Z,95.61
2018-10-19T02:06:09.104Z,96.08
2018-10-19T02:08:38.909Z,95.71
2018-10-19T02:11:08.657Z,95.42
2018-10-19T02:13:38.368Z,95.51
2018-10-19T02:16:08.271Z,95.65
2018-10-19T02:18:38.252Z,94.58
2018-10-19T02:21:08.224Z,94.92
2018-10-19T02:23:38.169Z,95.42
2018-10-19T02:26:07.936Z,94.72
2018-10-19T02:28:37.699Z,94.61
2018-10-19T02:31:08.774Z,95.77
2018-10-19T02:33:38.754Z,95.73
2018-10-19T02:36:08.431Z,96.05
2018-10-19T02:38:38.125Z,95.86
2018-10-19T02:41:08.338Z,94.89
2018-10-19T02:43:38.272Z,94.19
2018-10-19T02:46:08.070Z,93.81
2018-10-19T02:48:38.065Z,94.60
2018-10-19T02:51:07.943Z,94.08
2018-10-19T02:53:37.685Z,94.68
2018-10-19T02:56:07.498Z,94.93
2018-10-19T02:58:37.210Z,95.29
2018-10-19T03:01:06.931Z,94.49
2018-10-19T03:03:36.726Z,94.19
2018-10-19T03:06:06.595Z,94.47
2018-10-19T03:08:36.443Z,94.40
2018-10-19T03:11:07.868Z,94.12
2018-10-19T03:13:37.735Z,94.29
2018-10-19T03:16:07.522Z,94.89
2018-10-19T03:18:37.285Z,95.04
2018-10-19T03:21:07.400Z,94.89
2018-10-19T03:23:37.174Z,93.87
2018-10-19T03:26:08.166Z,93.64
2018-10-19T03:28:37.892Z,93.08
2018-10-19T03:31:07.651Z,93.60
2018-10-19T03:33:37.352Z,93.79
2018-10-19T03:36:07.107Z,93.44
2018-10-19T03:38:36.963Z,93.54
2018-10-19T03:41:07.085Z,93.51
2018-10-19T03:43:36.819Z,93.55
2018-10-19T03:46:07.272Z,92.66
2018-10-19T03:48:37.223Z,93.21
2018-10-19T03:51:08.324Z,93.02
2018-10-19T03:53:37.998Z,93.51
2018-10-19T03:56:07.792Z,93.39
2018-10-19T03:58:37.537Z,92.91
2018-10-19T04:01:07.318Z,93.69
2018-10-19T04:03:37.053Z,94.02
2018-10-19T04:06:07.583Z,94.00
2018-10-19T04:10:06.744Z,94.09
2018-10-19T04:12:36.597Z,94.44
2018-10-19T04:15:07.438Z,94.63
2018-10-19T04:17:38.264Z,94.72
2018-10-19T04:20:09.532Z,94.81
2018-10-19T04:22:39.529Z,94.89
2018-10-19T04:25:09.242Z,95.68
2018-10-19T04:27:39.102Z,95.18
2018-10-19T04:30:09.363Z,94.84
2018-10-19T04:32:39.191Z,94.93
2018-10-19T04:35:09.009Z,94.68
2018-10-19T04:37:38.796Z,94.22
2018-10-19T04:40:16.381Z,94.24
2018-10-19T04:42:46.118Z,93.55
2018-10-19T04:45:16.114Z,93.30
2018-10-19T04:47:45.958Z,93.49
2018-10-19T04:50:15.879Z,93.13
2018-10-19T04:52:45.559Z,93.05
2018-10-19T04:55:18.455Z,92.56
2018-10-19T04:57:48.226Z,92.00
2018-10-19T05:00:19.380Z,91.24
2018-10-19T05:02:52.577Z,90.65
2018-10-19T05:05:22.498Z,90.31
2018-10-19T05:07:52.178Z,89.70
2018-10-19T05:10:23.089Z,89.45
2018-10-19T05:12:52.846Z,88.83
2018-10-19T05:15:22.774Z,88.41
2018-10-19T05:17:52.450Z,87.93
2018-10-19T05:20:22.348Z,87.36
2018-10-19T05:22:52.071Z,86.53
2018-10-19T05:25:21.817Z,86.19
2018-10-19T05:27:51.613Z,85.79
2018-10-19T05:30:21.291Z,84.94
2018-10-19T05:32:51.147Z,85.34
2018-10-19T05:35:20.977Z,83.71
2018-10-19T05:37:50.753Z,83.65
2018-10-19T05:40:20.508Z,83.83
2018-10-19T05:42:54.290Z,83.59
2018-10-19T05:45:24.137Z,82.52
2018-10-19T05:47:53.994Z,82.33
2018-10-19T05:50:24.178Z,82.56
2018-10-19T05:52:54.017Z,82.66
2018-10-19T05:55:24.728Z,82.37
2018-10-19T05:57:54.527Z,81.71
2018-10-19T06:00:24.272Z,80.37
2018-10-19T06:02:54.112Z,79.89
2018-10-19T06:05:23.907Z,80.23
2018-10-19T06:07:53.996Z,79.65
2018-10-19T06:10:23.756Z,79.55
2018-10-19T06:12:53.501Z,78.99
2018-10-19T06:15:23.462Z,78.01
2018-10-19T06:17:53.208Z,78.14
2018-10-19T06:20:23.128Z,77.06
2018-10-19T06:22:53.037Z,76.27
2018-10-19T06:25:22.841Z,75.29
2018-10-19T06:27:52.825Z,74.67
2018-10-19T06:30:22.676Z,74.34
2018-10-19T06:32:52.723Z,72.99
2018-10-19T06:35:22.506Z,72.82
2018-10-19T06:37:52.567Z,71.90
2018-10-19T06:40:22.888Z,70.96
2018-10-19T06:42:52.779Z,69.95
2018-10-19T06:45:22.576Z,69.28
2018-10-19T06:47:52.320Z,68.56
2018-10-19T06:50:22.345Z,68.45
2018-10-19T06:52:52.246Z,68.31
2018-10-19T06:55:22.300Z,67.07
2018-10-19T06:57:52.012Z,65.88
2018-10-19T07:00:22.021Z,65.53
2018-10-19T07:02:59.271Z,65.16
2018-10-19T07:05:29.943Z,65.00
2018-10-19T07:08:00.001Z,65.26
2018-10-19T07:10:29.811Z,64.72
2018-10-19T07:12:59.596Z,63.58
2018-10-19T07:15:29.348Z,63.63
2018-10-19T07:17:59.173Z,63.38
2018-10-19T07:20:29.097Z,62.85
2018-10-19T07:22:58.957Z,62.61
2018-10-19T07:25:28.719Z,62.39
2018-10-19T07:27:58.504Z,62.43
2018-10-19T07:30:28.173Z,62.68
2018-10-19T07:32:57.951Z,62.66
2018-10-19T07:35:27.793Z,63.03
2018-10-19T07:37:58.218Z,62.91
2018-10-19T07:40:28.127Z,62.52
2018-10-19T07:42:58.071Z,63.86
2018-10-19T07:45:27.820Z,64.96
2018-10-19T07:47:57.788Z,65.59
2018-10-19T07:50:29.006Z,64.21
2018-10-19T07:52:58.788Z,63.92
2018-10-19T07:55:28.505Z,63.67
2018-10-19T07:57:58.179Z,63.62
2018-10-19T08:00:28.031Z,63.62
2018-10-19T08:02:57.781Z,62.95
2018-10-19T08:05:27.636Z,63.55
2018-10-19T08:07:57.448Z,63.52
2018-10-19T08:10:27.216Z,64.28
2018-10-19T08:12:57.019Z,65.17
2018-10-19T08:15:26.735Z,65.52
2018-10-19T08:17:56.522Z,65.19
2018-10-19T08:20:26.388Z,64.59
2018-10-19T08:22:56.166Z,63.13
2018-10-19T08:25:26.062Z,62.87
2018-10-19T08:27:55.856Z,62.72
2018-10-19T08:30:25.695Z,63.06
2018-10-19T08:32:55.390Z,62.28
2018-10-19T08:35:25.342Z,61.44
2018-10-19T08:37:55.478Z,62.33
2018-10-19T08:40:25.162Z,63.44
2018-10-19T08:42:54.975Z,63.75
2018-10-19T08:45:24.716Z,63.57
2018-10-19T08:47:54.571Z,63.91
2018-10-19T08:50:24.564Z,63.42
2018-10-19T08:52:54.595Z,63.59
2018-10-19T08:55:24.392Z,64.16
2018-10-19T08:57:54.199Z,63.99
2018-10-19T09:00:23.954Z,63.16
2018-10-19T09:02:53.700Z,63.21
2018-10-19T09:05:23.484Z,64.26
2018-10-19T09:07:53.390Z,64.57
2018-10-19T09:10:23.215Z,64.50
2018-10-19T09:12:54.158Z,65.20
2018-10-19T09:15:23.973Z,64.78
2018-10-19T09:17:53.809Z,63.70
2018-10-19T09:20:23.590Z,64.16
2018-10-19T09:22:53.506Z,63.07
2018-10-19T09:25:23.234Z,61.90
2018-10-19T09:27:53.073Z,62.73
2018-10-19T09:30:22.802Z,63.21
2018-10-19T09:32:52.475Z,61.80
2018-10-19T09:35:22.310Z,63.08
2018-10-19T09:37:52.273Z,63.09
2018-10-19T09:40:22.076Z,63.91
2018-10-19T09:42:51.796Z,65.60
2018-10-19T09:45:21.516Z,63.70
2018-10-19T09:47:51.228Z,62.61
2018-10-19T09:50:21.057Z,64.13
2018-10-19T09:52:50.812Z,65.02
2018-10-19T09:55:20.547Z,64.11
2018-10-19T09:57:50.338Z,64.32
2018-10-19T10:00:25.253Z,66.44
2018-10-19T10:02:55.120Z,66.37
2018-10-19T10:05:24.980Z,66.71
2018-10-19T10:07:54.987Z,66.29
2018-10-19T10:10:24.718Z,67.36
2018-10-19T10:12:54.493Z,66.54
2018-10-19T10:15:24.566Z,66.12
2018-10-19T10:17:54.430Z,66.96
2018-10-19T10:20:24.194Z,64.90
2018-10-19T10:22:53.944Z,64.13
2018-10-19T10:25:23.713Z,65.66
2018-10-19T10:27:53.491Z,63.08
2018-10-19T10:30:23.176Z,65.90
2018-10-19T10:32:52.921Z,64.82
2018-10-19T10:35:22.645Z,63.72
2018-10-19T10:37:52.721Z,62.62
2018-10-19T10:40:22.511Z,61.17
2018-10-19T10:42:52.270Z,59.56
2018-10-19T10:45:22.033Z,58.19
2018-10-19T10:47:51.920Z,59.32
2018-10-19T10:50:21.566Z,58.79
2018-10-19T10:52:52.693Z,59.99
2018-10-19T10:55:22.485Z,59.27
2018-10-19T10:57:52.298Z,60.00
2018-10-19T11:00:22.793Z,60.27
2018-10-19T11:02:52.534Z,60.46
2018-10-19T11:05:22.311Z,60.07
2018-10-19T11:07:52.187Z,59.80
2018-10-19T11:10:22.064Z,60.08
2018-10-19T11:12:51.963Z,60.80
2018-10-19T11:15:21.776Z,60.97
2018-10-19T11:17:51.768Z,60.38
2018-10-19T11:20:21.820Z,59.21
2018-10-19T11:22:52.314Z,59.82
2018-10-19T11:25:21.965Z,58.75
2018-10-19T11:27:51.706Z,59.21
2018-10-19T11:30:21.398Z,59.34
2018-10-19T11:32:52.512Z,60.24
2018-10-19T11:35:22.393Z,60.39
2018-10-19T11:37:52.160Z,61.60
2018-10-19T11:40:32.230Z,61.51
2018-10-19T11:43:02.138Z,62.03
2018-10-19T11:45:33.409Z,63.19
2018-10-19T11:48:03.267Z,62.35
2018-10-19T11:50:34.175Z,62.02
2018-10-19T11:53:04.291Z,63.20
2018-10-19T11:55:34.036Z,62.58
2018-10-19T11:58:03.819Z,63.09
2018-10-19T12:00:33.665Z,62.90
2018-10-19T12:03:03.795Z,63.67
2018-10-19T12:05:34.661Z,64.01
2018-10-19T12:08:04.418Z,65.62
2018-10-19T12:10:34.356Z,65.23
2018-10-19T12:13:04.373Z,66.41
2018-10-19T12:15:34.301Z,65.90
2018-10-19T12:18:04.110Z,66.42
2018-10-19T12:20:33.774Z,66.65
2018-10-19T12:23:03.600Z,65.96
2018-10-19T12:25:33.326Z,66.06
2018-10-19T12:28:03.126Z,65.87
2018-10-19T12:30:33.002Z,66.20
2018-10-19T12:33:02.856Z,66.05
2018-10-19T12:35:32.760Z,66.78
2018-10-19T12:38:02.661Z,66.20
2018-10-19T12:40:34.299Z,66.28
2018-10-19T12:43:04.182Z,66.44
2018-10-19T12:46:46.634Z,65.71
2018-10-19T12:49:17.924Z,66.15
2018-10-19T12:51:47.830Z,66.39
2018-10-19T12:54:18.029Z,66.82
2018-10-19T12:56:47.946Z,66.02
2018-10-19T12:59:18.692Z,67.10
2018-10-19T13:01:48.442Z,66.97
2018-10-19T13:04:18.220Z,66.70
2018-10-19T13:06:47.955Z,66.81
2018-10-19T13:09:17.876Z,67.14
2018-10-19T13:11:47.697Z,67.51
2018-10-19T13:14:17.416Z,67.72
2018-10-19T13:16:47.142Z,67.97
2018-10-19T13:19:17.100Z,68.04
2018-10-19T13:21:48.460Z,67.54
2018-10-19T13:24:18.320Z,68.00
2018-10-19T13:26:48.066Z,69.32
2018-10-19T13:29:17.849Z,70.65
2018-10-19T13:31:48.088Z,70.50
2018-10-19T13:34:19.717Z,70.85
2018-10-19T13:36:49.478Z,71.17
2018-10-19T13:39:20.169Z,71.21
2018-10-19T13:41:50.814Z,71.00
2018-10-19T13:44:20.807Z,71.06
2018-10-19T13:46:50.591Z,71.20
2018-10-19T13:49:20.340Z,71.87
2018-10-19T13:51:51.695Z,72.10
2018-10-19T13:54:23.537Z,71.66
2018-10-19T13:56:53.416Z,71.55
2018-10-19T13:59:23.345Z,71.45
2018-10-19T14:01:53.187Z,71.36
2018-10-19T14:04:23.077Z,71.86
2018-10-19T14:06:52.922Z,71.57
2018-10-19T14:09:22.753Z,71.51
2018-10-19T14:11:52.468Z,71.84
2018-10-19T14:14:22.349Z,72.65
2018-10-19T14:16:52.472Z,72.61
2018-10-19T14:19:23.617Z,73.03
2018-10-19T14:21:53.495Z,73.19
2018-10-19T14:24:25.213Z,72.87
2018-10-19T14:26:56.085Z,73.64
2018-10-19T14:29:25.803Z,74.39
2018-10-19T14:31:55.436Z,75.16
2018-10-19T14:34:25.410Z,75.67
2018-10-19T14:36:55.211Z,75.82
2018-10-19T14:39:26.141Z,75.92
2018-10-19T14:41:56.099Z,76.42
2018-10-19T14:44:25.853Z,77.26
2018-10-19T14:46:55.715Z,77.34
2018-10-19T14:49:25.496Z,76.80
2018-10-19T14:51:56.870Z,77.31
2018-10-19T14:54:27.742Z,78.02
2018-10-19T14:56:58.309Z,78.62
2018-10-19T14:59:29.331Z,78.52
2018-10-19T15:01:59.993Z,80.00
2018-10-19T15:04:30.061Z,79.97
2018-10-19T15:07:00.088Z,79.85
2018-10-19T15:09:30.003Z,80.22
2018-10-19T15:11:59.914Z,80.32
2018-10-19T15:14:29.715Z,80.57
2018-10-19T15:16:59.524Z,80.92
2018-10-19T15:19:29.323Z,81.52
2018-10-19T15:21:59.964Z,81.60
2018-10-19T15:24:29.961Z,82.18
2018-10-19T15:27:00.448Z,82.51
2018-10-19T15:29:30.280Z,82.97
2018-10-19T15:32:01.368Z,83.31
2018-10-19T15:34:31.053Z,84.12
2018-10-19T15:37:01.110Z,84.51
2018-10-19T15:39:30.921Z,84.54
2018-10-19T15:42:00.673Z,84.48
2018-10-19T15:44:30.567Z,85.03
2018-10-19T15:47:02.840Z,85.26
2018-10-19T15:49:33.062Z,85.05
2018-10-19T15:52:03.201Z,84.91
2018-10-19T15:54:33.312Z,85.10
2018-10-19T15:57:03.489Z,85.45
2018-10-19T15:59:33.395Z,85.69
2018-10-19T16:02:03.147Z,86.01
2018-10-19T16:04:35.435Z,86.35
2018-10-19T16:07:05.432Z,86.90
2018-10-19T16:09:35.492Z,86.43
2018-10-19T16:12:05.666Z,86.70
2018-10-19T16:14:35.764Z,86.93
2018-10-19T16:17:07.097Z,87.10
2018-10-19T16:19:37.292Z,87.25
2018-10-19T16:22:08.652Z,87.15
2018-10-19T16:24:39.088Z,87.33
2018-10-19T16:27:09.074Z,88.04
2018-10-19T16:29:38.921Z,87.99
2018-10-19T16:32:08.830Z,88.06
2018-10-19T16:34:38.852Z,88.59
2018-10-19T16:37:08.906Z,89.25
2018-10-19T16:39:38.796Z,89.08
2018-10-19T16:42:08.797Z,89.05
2018-10-19T16:44:38.560Z,88.70
2018-10-19T16:47:08.914Z,88.83
2018-10-19T16:49:38.892Z,89.20
2018-10-19T16:52:09.978Z,89.70
2018-10-19T16:54:39.907Z,89.40
2018-10-19T16:57:09.855Z,89.81
2018-10-19T16:59:41.663Z,90.08
2018-10-19T17:02:11.438Z,90.65
2018-10-19T17:04:41.413Z,90.75
2018-10-19T17:07:12.242Z,90.86
2018-10-19T17:09:42.166Z,91.13
2018-10-19T17:12:12.880Z,91.25
2018-10-19T17:14:42.800Z,91.86
2018-10-19T17:17:12.621Z,91.98
2018-10-19T17:19:42.554Z,91.83
2018-10-19T17:22:12.449Z,91.68
2018-10-19T17:24:42.343Z,91.40
2018-10-19T17:27:14.454Z,91.60
2018-10-19T17:29:44.469Z,91.67
2018-10-19T17:32:14.241Z,91.03
2018-10-19T17:34:44.206Z,90.70
2018-10-19T17:37:14.086Z,90.55
2018-10-19T17:39:44.158Z,91.22
2018-10-19T17:42:14.337Z,90.72
2018-10-19T17:44:44.463Z,91.15
2018-10-19T17:47:16.173Z,90.46
2018-10-19T17:49:46.185Z,90.46
2018-10-19T17:52:16.495Z,89.72
2018-10-19T17:54:47.455Z,90.23
2018-10-19T17:57:17.413Z,90.17
2018-10-19T17:59:47.628Z,89.80
2018-10-19T18:02:18.935Z,89.54
2018-10-19T18:04:48.867Z,89.40
2018-10-19T18:07:18.751Z,88.71
2018-10-19T18:09:48.985Z,88.57
2018-10-19T18:12:19.211Z,87.91
2018-10-19T18:14:49.015Z,88.10
2018-10-19T18:17:18.905Z,87.66
2018-10-19T18:19:48.743Z,87.85
2018-10-19T18:22:18.889Z,87.18
2018-10-19T18:24:48.612Z,86.63
2018-10-19T18:27:18.637Z,86.95
2018-10-19T18:29:48.581Z,86.78
2018-10-19T18:32:18.327Z,86.61
2018-10-19T18:34:48.095Z,86.56
2018-10-19T18:37:17.947Z,86.22
2018-10-19T18:39:47.779Z,85.64
2018-10-19T18:42:17.663Z,85.44
2018-10-19T18:44:47.463Z,85.41
2018-10-19T18:47:17.289Z,85.34
2018-10-19T18:49:47.020Z,85.29
2018-10-19T18:52:17.203Z,85.28
2018-10-19T18:54:47.027Z,85.34
2018-10-19T18:57:16.909Z,85.41
2018-10-19T18:59:46.656Z,85.24
2018-10-19T19:02:16.585Z,85.19
2018-10-19T19:04:46.569Z,84.52
2018-10-19T19:07:16.379Z,84.46
2018-10-19T19:09:51.198Z,84.07
2018-10-19T19:12:20.938Z,83.42
2018-10-19T19:14:50.714Z,82.66
2018-10-19T19:17:20.904Z,82.95
2018-10-19T19:19:55.651Z,83.08
2018-10-19T19:22:26.127Z,83.31
2018-10-19T19:25:03.649Z,83.12
2018-10-19T19:27:37.290Z,82.99
2018-10-19T19:30:08.260Z,82.50
2018-10-19T19:32:40.430Z,82.98
2018-10-19T19:35:15.824Z,82.89
2018-10-19T19:37:45.631Z,83.20
2018-10-19T19:40:15.452Z,83.46
2018-10-19T19:42:48.928Z,84.19
2018-10-19T19:45:19.299Z,83.94
2018-10-19T19:47:54.248Z,84.29
2018-10-19T19:50:25.570Z,84.03
2018-10-19T19:53:02.183Z,84.08
2018-10-19T19:55:32.178Z,83.92
2018-10-19T19:58:02.125Z,83.71
2018-10-19T20:00:32.097Z,83.75
2018-10-19T20:03:01.971Z,83.19
2018-10-19T20:05:33.927Z,83.37
2018-10-19T20:08:06.359Z,83.48
2018-10-19T20:10:36.700Z,83.71
2018-10-19T20:13:08.501Z,84.15
2018-10-19T20:15:38.344Z,83.72
2018-10-19T20:18:08.146Z,83.92
2018-10-19T20:20:39.199Z,83.63
2018-10-19T20:23:11.325Z,83.46
2018-10-19T20:25:41.698Z,83.21
2018-10-19T20:28:12.504Z,82.66
2018-10-19T20:30:45.639Z,81.76
2018-10-19T20:33:15.662Z,81.39
2018-10-19T20:35:46.392Z,81.69
2018-10-19T20:38:18.515Z,80.26
2018-10-19T20:40:48.445Z,79.71
2018-10-19T20:43:18.179Z,79.19
2018-10-19T20:45:49.249Z,79.20
2018-10-19T20:48:19.125Z,78.73
2018-10-19T20:50:48.887Z,78.89
2018-10-19T20:53:18.670Z,78.62
2018-10-19T20:55:49.478Z,77.99
2018-10-19T20:58:19.249Z,77.74
2018-10-19T21:00:49.064Z,77.95
2018-10-19T21:03:18.843Z,78.19
2018-10-19T21:05:48.753Z,78.33
2018-10-19T21:08:18.844Z,78.17
2018-10-19T21:10:49.873Z,77.74
2018-10-19T21:13:19.775Z,78.05
2018-10-19T21:15:49.662Z,78.08
2018-10-19T21:18:20.563Z,77.86
2018-10-19T21:20:50.554Z,77.02
2018-10-19T21:23:20.577Z,76.44
2018-10-19T21:25:50.352Z,76.13
2018-10-19T21:28:20.270Z,76.30
2018-10-19T21:30:50.029Z,76.52
2018-10-19T21:33:19.936Z,77.42
2018-10-19T21:35:49.850Z,77.41
2018-10-19T21:38:19.815Z,77.92
2018-10-19T21:40:49.776Z,78.74
2018-10-19T21:43:19.739Z,79.69
2018-10-19T21:45:49.578Z,80.13
2018-10-19T21:48:19.373Z,80.49
2018-10-19T21:50:49.263Z,80.27
2018-10-19T21:53:19.227Z,80.34
2018-10-19T21:55:49.284Z,81.00
2018-10-19T21:58:19.241Z,80.68
2018-10-19T22:00:49.216Z,80.28
2018-10-19T22:03:19.126Z,80.00
2018-10-19T22:05:48.917Z,78.88
2018-10-19T22:08:18.877Z,79.48
2018-10-19T22:10:48.763Z,79.80
2018-10-19T22:13:18.935Z,79.39
2018-10-19T22:15:48.813Z,79.71
2018-10-19T22:18:18.753Z,80.29
2018-10-19T22:20:48.613Z,80.46
2018-10-19T22:23:18.702Z,80.32
2018-10-19T22:25:48.603Z,80.20
2018-10-19T22:28:18.362Z,80.33
2018-10-19T22:30:48.208Z,80.39
2018-10-19T22:33:18.741Z,80.68
2018-10-19T22:35:48.490Z,80.85
2018-10-19T22:38:18.538Z,80.71
2018-10-19T22:40:48.437Z,80.23
2018-10-19T22:43:18.281Z,79.39
2018-10-19T22:45:48.022Z,78.16
2018-10-19T22:48:18.069Z,78.14
2018-10-19T22:50:47.913Z,77.94
2018-10-19T22:53:19.067Z,78.20
2018-10-19T22:55:49.058Z,77.83
2018-10-19T22:58:19.031Z,77.20
2018-10-19T23:00:48.805Z,77.73
2018-10-19T23:03:18.842Z,77.98
2018-10-19T23:05:48.817Z,77.88
2018-10-19T23:08:18.653Z,77.83
2018-10-19T23:10:48.615Z,77.29
2018-10-19T23:13:18.401Z,77.68
2018-10-19T23:15:49.382Z,77.03
2018-10-19T23:18:19.235Z,77.23
2018-10-19T23:20:49.056Z,77.45
2018-10-19T23:23:18.932Z,76.53
2018-10-19T23:25:48.824Z,76.21
2018-10-19T23:28:19.556Z,75.78
2018-10-19T23:30:50.841Z,75.39
2018-10-19T23:33:20.625Z,75.02
2018-10-19T23:35:50.673Z,74.96
2018-10-19T23:38:20.389Z,75.18
2018-10-19T23:40:50.156Z,74.75
2018-10-19T23:43:21.095Z,74.51
2018-10-19T23:45:50.826Z,74.55
2018-10-19T23:48:20.874Z,74.28
2018-10-19T23:50:50.679Z,75.00
2018-10-19T23:53:20.532Z,74.66
2018-10-19T23:55:50.330Z,74.26
2018-10-19T23:58:20.056Z,74.52
